sensor_id;sensor_type;location;lat;lon;timestamp;P1;durP1;ratioP1;P2;durP2;ratioP2
70071;SDS011;57434;42.794;23.302;2022-10-15T00:00:41;14.95;;;5.40;;
70071;SDS011;57434;42.794;23.302;2022-10-15T00:03:08;12.10;;;5.15;;
70071;SDS011;57434;42.794;23.302;2022-10-15T00:05:36;8.63;;;4.28;;
70071;SDS011;57434;42.794;23.302;2022-10-15T00:08:04;10.40;;;4.57;;
70071;SDS011;57434;42.794;23.302;2022-10-15T00:10:32;9.32;;;3.97;;
70071;SDS011;57434;42.794;23.302;2022-10-15T00:13:00;9.52;;;4.15;;
70071;SDS011;57434;42.794;23.302;2022-10-15T00:15:28;9.07;;;3.83;;
70071;SDS011;57434;42.794;23.302;2022-10-15T00:17:55;7.63;;;3.45;;
70071;SDS011;57434;42.794;23.302;2022-10-15T00:20:22;8.30;;;3.50;;
70071;SDS011;57434;42.794;23.302;2022-10-15T00:22:49;8.07;;;3.38;;
70071;SDS011;57434;42.794;23.302;2022-10-15T00:25:16;8.90;;;4.32;;
70071;SDS011;57434;42.794;23.302;2022-10-15T00:27:43;10.23;;;5.00;;
70071;SDS011;57434;42.794;23.302;2022-10-15T00:30:10;8.85;;;4.43;;
70071;SDS011;57434;42.794;23.302;2022-10-15T00:32:37;12.50;;;5.40;;
70071;SDS011;57434;42.794;23.302;2022-10-15T00:35:04;10.95;;;5.50;;
70071;SDS011;57434;42.794;23.302;2022-10-15T00:37:32;17.85;;;5.03;;
70071;SDS011;57434;42.794;23.302;2022-10-15T00:39:59;11.70;;;5.70;;
70071;SDS011;57434;42.794;23.302;2022-10-15T00:42:26;14.57;;;5.18;;
70071;SDS011;57434;42.794;23.302;2022-10-15T00:44:55;10.83;;;4.83;;
70071;SDS011;57434;42.794;23.302;2022-10-15T00:47:35;13.32;;;5.00;;
70071;SDS011;57434;42.794;23.302;2022-10-15T00:55:32;11.82;;;4.80;;
70071;SDS011;57434;42.794;23.302;2022-10-15T00:58:06;12.63;;;4.97;;
70071;SDS011;57434;42.794;23.302;2022-10-15T01:00:39;11.35;;;4.60;;
70071;SDS011;57434;42.794;23.302;2022-10-15T01:03:07;9.73;;;4.60;;
70071;SDS011;57434;42.794;23.302;2022-10-15T01:05:34;8.88;;;4.35;;
70071;SDS011;57434;42.794;23.302;2022-10-15T01:08:03;12.38;;;4.38;;
70071;SDS011;57434;42.794;23.302;2022-10-15T01:10:31;9.53;;;4.53;;
70071;SDS011;57434;42.794;23.302;2022-10-15T01:13:10;10.15;;;3.63;;
70071;SDS011;57434;42.794;23.302;2022-10-15T01:18:47;12.82;;;3.33;;
70071;SDS011;57434;42.794;23.302;2022-10-15T01:24:37;9.30;;;3.60;;
70071;SDS011;57434;42.794;23.302;2022-10-15T01:27:14;8.15;;;3.22;;
70071;SDS011;57434;42.794;23.302;2022-10-15T01:36:08;7.10;;;2.60;;
70071;SDS011;57434;42.794;23.302;2022-10-15T01:38:57;6.87;;;2.80;;
70071;SDS011;57434;42.794;23.302;2022-10-15T01:41:42;10.05;;;3.38;;
70071;SDS011;57434;42.794;23.302;2022-10-15T01:44:23;8.15;;;3.40;;
70071;SDS011;57434;42.794;23.302;2022-10-15T01:47:06;7.97;;;3.50;;
70071;SDS011;57434;42.794;23.302;2022-10-15T01:49:40;9.68;;;3.63;;
70071;SDS011;57434;42.794;23.302;2022-10-15T01:52:18;8.33;;;3.17;;
70071;SDS011;57434;42.794;23.302;2022-10-15T01:54:49;7.47;;;3.42;;
70071;SDS011;57434;42.794;23.302;2022-10-15T01:57:18;8.85;;;3.42;;
70071;SDS011;57434;42.794;23.302;2022-10-15T01:59:47;8.18;;;3.20;;
70071;SDS011;57434;42.794;23.302;2022-10-15T02:02:15;8.55;;;3.80;;
70071;SDS011;57434;42.794;23.302;2022-10-15T02:04:43;9.23;;;3.57;;
70071;SDS011;57434;42.794;23.302;2022-10-15T02:07:14;10.00;;;3.63;;
70071;SDS011;57434;42.794;23.302;2022-10-15T02:15:30;9.18;;;3.95;;
70071;SDS011;57434;42.794;23.302;2022-10-15T02:18:20;10.53;;;3.07;;
70071;SDS011;57434;42.794;23.302;2022-10-15T02:20:56;7.60;;;3.13;;
70071;SDS011;57434;42.794;23.302;2022-10-15T02:23:31;8.45;;;3.50;;
70071;SDS011;57434;42.794;23.302;2022-10-15T02:26:09;8.10;;;3.20;;
70071;SDS011;57434;42.794;23.302;2022-10-15T02:28:40;7.38;;;2.80;;
70071;SDS011;57434;42.794;23.302;2022-10-15T02:31:11;8.00;;;2.83;;
70071;SDS011;57434;42.794;23.302;2022-10-15T02:33:39;8.90;;;3.70;;
70071;SDS011;57434;42.794;23.302;2022-10-15T02:36:08;7.43;;;3.17;;
70071;SDS011;57434;42.794;23.302;2022-10-15T02:38:35;9.13;;;3.50;;
70071;SDS011;57434;42.794;23.302;2022-10-15T02:41:06;7.78;;;3.95;;
70071;SDS011;57434;42.794;23.302;2022-10-15T02:43:35;9.80;;;3.53;;
70071;SDS011;57434;42.794;23.302;2022-10-15T02:46:03;6.32;;;3.13;;
70071;SDS011;57434;42.794;23.302;2022-10-15T02:48:31;8.23;;;3.65;;
70071;SDS011;57434;42.794;23.302;2022-10-15T02:50:58;7.65;;;3.58;;
70071;SDS011;57434;42.794;23.302;2022-10-15T02:53:25;7.88;;;3.20;;
70071;SDS011;57434;42.794;23.302;2022-10-15T02:55:52;6.70;;;3.23;;
70071;SDS011;57434;42.794;23.302;2022-10-15T02:58:19;7.53;;;3.60;;
70071;SDS011;57434;42.794;23.302;2022-10-15T03:00:46;8.88;;;3.65;;
70071;SDS011;57434;42.794;23.302;2022-10-15T03:03:14;9.60;;;4.05;;
70071;SDS011;57434;42.794;23.302;2022-10-15T03:05:42;8.32;;;2.88;;
70071;SDS011;57434;42.794;23.302;2022-10-15T03:08:09;8.27;;;3.37;;
70071;SDS011;57434;42.794;23.302;2022-10-15T03:10:36;7.32;;;2.97;;
70071;SDS011;57434;42.794;23.302;2022-10-15T03:13:03;7.55;;;3.03;;
70071;SDS011;57434;42.794;23.302;2022-10-15T03:15:31;11.25;;;2.95;;
70071;SDS011;57434;42.794;23.302;2022-10-15T03:17:58;9.88;;;3.15;;
70071;SDS011;57434;42.794;23.302;2022-10-15T03:20:26;8.87;;;3.97;;
70071;SDS011;57434;42.794;23.302;2022-10-15T03:22:53;8.68;;;3.65;;
70071;SDS011;57434;42.794;23.302;2022-10-15T03:25:20;10.82;;;3.65;;
70071;SDS011;57434;42.794;23.302;2022-10-15T03:27:47;15.75;;;3.10;;
70071;SDS011;57434;42.794;23.302;2022-10-15T03:30:14;9.10;;;3.47;;
70071;SDS011;57434;42.794;23.302;2022-10-15T03:32:41;6.80;;;2.97;;
70071;SDS011;57434;42.794;23.302;2022-10-15T03:35:08;9.88;;;3.42;;
70071;SDS011;57434;42.794;23.302;2022-10-15T03:37:35;7.50;;;3.20;;
70071;SDS011;57434;42.794;23.302;2022-10-15T03:40:02;11.35;;;3.00;;
70071;SDS011;57434;42.794;23.302;2022-10-15T03:42:39;8.70;;;3.42;;
70071;SDS011;57434;42.794;23.302;2022-10-15T03:45:07;8.80;;;3.13;;
70071;SDS011;57434;42.794;23.302;2022-10-15T03:47:34;7.25;;;3.33;;
70071;SDS011;57434;42.794;23.302;2022-10-15T03:50:01;8.93;;;3.58;;
70071;SDS011;57434;42.794;23.302;2022-10-15T03:52:31;10.23;;;3.30;;
70071;SDS011;57434;42.794;23.302;2022-10-15T03:54:58;9.40;;;3.80;;
70071;SDS011;57434;42.794;23.302;2022-10-15T03:57:25;9.30;;;3.20;;
70071;SDS011;57434;42.794;23.302;2022-10-15T03:59:52;11.48;;;3.75;;
70071;SDS011;57434;42.794;23.302;2022-10-15T04:02:19;9.05;;;3.63;;
70071;SDS011;57434;42.794;23.302;2022-10-15T04:04:47;7.35;;;3.13;;
70071;SDS011;57434;42.794;23.302;2022-10-15T04:07:16;11.10;;;3.80;;
70071;SDS011;57434;42.794;23.302;2022-10-15T04:09:44;10.60;;;3.60;;
70071;SDS011;57434;42.794;23.302;2022-10-15T04:12:14;8.40;;;3.60;;
70071;SDS011;57434;42.794;23.302;2022-10-15T04:14:42;7.95;;;3.35;;
70071;SDS011;57434;42.794;23.302;2022-10-15T04:17:09;7.40;;;3.30;;
70071;SDS011;57434;42.794;23.302;2022-10-15T04:19:37;11.35;;;3.55;;
70071;SDS011;57434;42.794;23.302;2022-10-15T04:22:04;11.07;;;3.70;;
70071;SDS011;57434;42.794;23.302;2022-10-15T04:24:31;9.00;;;3.72;;
70071;SDS011;57434;42.794;23.302;2022-10-15T04:26:57;11.20;;;3.67;;
70071;SDS011;57434;42.794;23.302;2022-10-15T04:29:25;7.35;;;3.60;;
70071;SDS011;57434;42.794;23.302;2022-10-15T04:31:52;8.95;;;3.63;;
70071;SDS011;57434;42.794;23.302;2022-10-15T04:34:19;9.40;;;3.47;;
70071;SDS011;57434;42.794;23.302;2022-10-15T04:36:46;9.90;;;3.88;;
70071;SDS011;57434;42.794;23.302;2022-10-15T04:39:13;7.90;;;3.50;;
70071;SDS011;57434;42.794;23.302;2022-10-15T04:41:41;8.38;;;3.28;;
70071;SDS011;57434;42.794;23.302;2022-10-15T04:44:08;12.52;;;6.15;;
70071;SDS011;57434;42.794;23.302;2022-10-15T04:46:35;8.60;;;3.90;;
70071;SDS011;57434;42.794;23.302;2022-10-15T04:49:02;8.85;;;4.43;;
70071;SDS011;57434;42.794;23.302;2022-10-15T04:51:29;11.93;;;5.53;;
70071;SDS011;57434;42.794;23.302;2022-10-15T04:53:56;11.68;;;5.07;;
70071;SDS011;57434;42.794;23.302;2022-10-15T04:56:23;14.60;;;4.57;;
70071;SDS011;57434;42.794;23.302;2022-10-15T04:58:50;10.50;;;4.43;;
70071;SDS011;57434;42.794;23.302;2022-10-15T05:01:17;11.85;;;4.78;;
70071;SDS011;57434;42.794;23.302;2022-10-15T05:03:46;9.18;;;3.30;;
70071;SDS011;57434;42.794;23.302;2022-10-15T05:06:15;10.75;;;4.18;;
70071;SDS011;57434;42.794;23.302;2022-10-15T05:08:45;15.55;;;7.20;;
70071;SDS011;57434;42.794;23.302;2022-10-15T05:11:14;15.10;;;5.47;;
70071;SDS011;57434;42.794;23.302;2022-10-15T05:13:45;8.95;;;3.90;;
70071;SDS011;57434;42.794;23.302;2022-10-15T05:16:14;11.25;;;4.30;;
70071;SDS011;57434;42.794;23.302;2022-10-15T05:18:43;8.85;;;4.18;;
70071;SDS011;57434;42.794;23.302;2022-10-15T05:21:11;11.02;;;4.43;;
70071;SDS011;57434;42.794;23.302;2022-10-15T05:23:39;11.73;;;4.50;;
70071;SDS011;57434;42.794;23.302;2022-10-15T05:26:07;10.98;;;3.67;;
70071;SDS011;57434;42.794;23.302;2022-10-15T05:28:37;9.13;;;3.63;;
70071;SDS011;57434;42.794;23.302;2022-10-15T05:31:05;10.23;;;3.53;;
70071;SDS011;57434;42.794;23.302;2022-10-15T05:33:33;11.23;;;3.50;;
70071;SDS011;57434;42.794;23.302;2022-10-15T05:36:07;6.83;;;2.70;;
70071;SDS011;57434;42.794;23.302;2022-10-15T05:38:44;8.15;;;3.22;;
70071;SDS011;57434;42.794;23.302;2022-10-15T05:41:13;10.40;;;5.35;;
70071;SDS011;57434;42.794;23.302;2022-10-15T05:43:40;11.25;;;4.63;;
70071;SDS011;57434;42.794;23.302;2022-10-15T05:46:08;9.93;;;3.22;;
70071;SDS011;57434;42.794;23.302;2022-10-15T05:48:35;7.67;;;3.23;;
70071;SDS011;57434;42.794;23.302;2022-10-15T05:51:03;9.20;;;3.15;;
70071;SDS011;57434;42.794;23.302;2022-10-15T05:53:31;7.97;;;2.83;;
70071;SDS011;57434;42.794;23.302;2022-10-15T05:55:59;8.38;;;3.30;;
70071;SDS011;57434;42.794;23.302;2022-10-15T05:58:27;6.80;;;2.60;;
70071;SDS011;57434;42.794;23.302;2022-10-15T06:01:00;5.77;;;2.53;;
70071;SDS011;57434;42.794;23.302;2022-10-15T06:03:29;6.70;;;2.47;;
70071;SDS011;57434;42.794;23.302;2022-10-15T06:05:56;6.88;;;2.38;;
70071;SDS011;57434;42.794;23.302;2022-10-15T06:08:24;7.03;;;2.60;;
70071;SDS011;57434;42.794;23.302;2022-10-15T06:11:00;5.30;;;2.30;;
70071;SDS011;57434;42.794;23.302;2022-10-15T06:13:38;11.93;;;3.47;;
70071;SDS011;57434;42.794;23.302;2022-10-15T06:16:08;12.63;;;4.40;;
70071;SDS011;57434;42.794;23.302;2022-10-15T06:18:36;7.32;;;2.85;;
70071;SDS011;57434;42.794;23.302;2022-10-15T06:21:03;7.35;;;2.65;;
70071;SDS011;57434;42.794;23.302;2022-10-15T06:23:31;5.93;;;2.53;;
70071;SDS011;57434;42.794;23.302;2022-10-15T06:26:01;7.50;;;2.47;;
70071;SDS011;57434;42.794;23.302;2022-10-15T06:28:29;8.13;;;2.90;;
70071;SDS011;57434;42.794;23.302;2022-10-15T06:30:58;8.32;;;2.95;;
70071;SDS011;57434;42.794;23.302;2022-10-15T06:33:25;6.40;;;2.28;;
70071;SDS011;57434;42.794;23.302;2022-10-15T06:35:53;8.00;;;2.78;;
70071;SDS011;57434;42.794;23.302;2022-10-15T06:38:20;9.40;;;3.67;;
70071;SDS011;57434;42.794;23.302;2022-10-15T06:40:47;9.77;;;2.60;;
70071;SDS011;57434;42.794;23.302;2022-10-15T06:43:14;12.27;;;2.70;;
70071;SDS011;57434;42.794;23.302;2022-10-15T06:45:41;8.00;;;2.65;;
70071;SDS011;57434;42.794;23.302;2022-10-15T06:48:08;6.50;;;2.40;;
70071;SDS011;57434;42.794;23.302;2022-10-15T06:50:35;6.67;;;2.87;;
70071;SDS011;57434;42.794;23.302;2022-10-15T06:53:04;6.38;;;2.90;;
70071;SDS011;57434;42.794;23.302;2022-10-15T06:55:31;7.32;;;2.55;;
70071;SDS011;57434;42.794;23.302;2022-10-15T06:57:58;6.10;;;2.45;;
70071;SDS011;57434;42.794;23.302;2022-10-15T07:00:26;6.53;;;2.38;;
70071;SDS011;57434;42.794;23.302;2022-10-15T07:02:53;8.30;;;2.70;;
70071;SDS011;57434;42.794;23.302;2022-10-15T07:05:20;7.97;;;2.50;;
70071;SDS011;57434;42.794;23.302;2022-10-15T07:07:51;7.43;;;2.58;;
70071;SDS011;57434;42.794;23.302;2022-10-15T07:10:19;7.28;;;2.72;;
70071;SDS011;57434;42.794;23.302;2022-10-15T07:12:51;11.18;;;2.95;;
70071;SDS011;57434;42.794;23.302;2022-10-15T07:15:18;9.10;;;3.00;;
70071;SDS011;57434;42.794;23.302;2022-10-15T07:17:49;8.07;;;3.03;;
70071;SDS011;57434;42.794;23.302;2022-10-15T07:20:18;13.27;;;2.97;;
70071;SDS011;57434;42.794;23.302;2022-10-15T07:22:50;9.88;;;3.08;;
70071;SDS011;57434;42.794;23.302;2022-10-15T07:25:26;9.50;;;2.97;;
70071;SDS011;57434;42.794;23.302;2022-10-15T07:27:54;7.23;;;2.50;;
70071;SDS011;57434;42.794;23.302;2022-10-15T07:30:23;6.78;;;2.80;;
70071;SDS011;57434;42.794;23.302;2022-10-15T07:32:51;7.07;;;2.40;;
70071;SDS011;57434;42.794;23.302;2022-10-15T07:35:18;8.57;;;2.58;;
70071;SDS011;57434;42.794;23.302;2022-10-15T07:37:45;6.80;;;2.08;;
70071;SDS011;57434;42.794;23.302;2022-10-15T07:40:11;5.83;;;2.23;;
70071;SDS011;57434;42.794;23.302;2022-10-15T07:42:38;5.50;;;2.15;;
70071;SDS011;57434;42.794;23.302;2022-10-15T07:45:07;6.85;;;2.10;;
70071;SDS011;57434;42.794;23.302;2022-10-15T07:47:34;6.35;;;2.03;;
70071;SDS011;57434;42.794;23.302;2022-10-15T07:50:01;6.07;;;2.50;;
70071;SDS011;57434;42.794;23.302;2022-10-15T07:52:29;5.67;;;2.37;;
70071;SDS011;57434;42.794;23.302;2022-10-15T07:54:56;8.93;;;2.63;;
70071;SDS011;57434;42.794;23.302;2022-10-15T07:57:23;9.27;;;3.17;;
70071;SDS011;57434;42.794;23.302;2022-10-15T07:59:50;7.85;;;2.67;;
70071;SDS011;57434;42.794;23.302;2022-10-15T08:02:17;7.05;;;2.90;;
70071;SDS011;57434;42.794;23.302;2022-10-15T08:04:44;6.63;;;2.07;;
70071;SDS011;57434;42.794;23.302;2022-10-15T08:07:14;7.65;;;3.10;;
70071;SDS011;57434;42.794;23.302;2022-10-15T08:09:41;7.88;;;2.65;;
70071;SDS011;57434;42.794;23.302;2022-10-15T08:12:09;8.85;;;2.80;;
70071;SDS011;57434;42.794;23.302;2022-10-15T08:14:36;13.88;;;4.20;;
70071;SDS011;57434;42.794;23.302;2022-10-15T08:17:03;7.37;;;2.60;;
70071;SDS011;57434;42.794;23.302;2022-10-15T08:19:31;7.07;;;2.83;;
70071;SDS011;57434;42.794;23.302;2022-10-15T08:21:58;11.77;;;3.80;;
70071;SDS011;57434;42.794;23.302;2022-10-15T08:24:25;14.10;;;5.43;;
70071;SDS011;57434;42.794;23.302;2022-10-15T08:26:52;8.50;;;3.10;;
70071;SDS011;57434;42.794;23.302;2022-10-15T08:29:19;8.00;;;3.37;;
70071;SDS011;57434;42.794;23.302;2022-10-15T08:31:46;5.85;;;2.50;;
70071;SDS011;57434;42.794;23.302;2022-10-15T08:34:13;6.00;;;2.70;;
70071;SDS011;57434;42.794;23.302;2022-10-15T08:36:40;5.65;;;2.50;;
70071;SDS011;57434;42.794;23.302;2022-10-15T08:39:07;9.95;;;5.53;;
70071;SDS011;57434;42.794;23.302;2022-10-15T08:41:42;20.70;;;11.37;;
70071;SDS011;57434;42.794;23.302;2022-10-15T08:49:54;5.72;;;2.22;;
70071;SDS011;57434;42.794;23.302;2022-10-15T08:55:00;5.20;;;2.40;;
70071;SDS011;57434;42.794;23.302;2022-10-15T09:00:00;6.47;;;2.45;;
70071;SDS011;57434;42.794;23.302;2022-10-15T09:08:24;4.47;;;1.83;;
70071;SDS011;57434;42.794;23.302;2022-10-15T09:10:59;4.88;;;1.90;;
70071;SDS011;57434;42.794;23.302;2022-10-15T09:13:47;5.68;;;1.88;;
70071;SDS011;57434;42.794;23.302;2022-10-15T09:16:19;6.15;;;2.03;;
70071;SDS011;57434;42.794;23.302;2022-10-15T09:18:50;4.47;;;1.80;;
70071;SDS011;57434;42.794;23.302;2022-10-15T09:21:19;5.80;;;2.10;;
70071;SDS011;57434;42.794;23.302;2022-10-15T09:23:49;4.90;;;1.90;;
70071;SDS011;57434;42.794;23.302;2022-10-15T09:29:00;7.18;;;2.30;;
70071;SDS011;57434;42.794;23.302;2022-10-15T09:31:41;6.32;;;2.35;;
70071;SDS011;57434;42.794;23.302;2022-10-15T09:34:21;6.53;;;2.33;;
70071;SDS011;57434;42.794;23.302;2022-10-15T09:36:59;6.07;;;2.25;;
70071;SDS011;57434;42.794;23.302;2022-10-15T09:42:30;5.43;;;1.85;;
70071;SDS011;57434;42.794;23.302;2022-10-15T09:45:03;7.22;;;2.17;;
70071;SDS011;57434;42.794;23.302;2022-10-15T09:47:33;5.40;;;2.53;;
70071;SDS011;57434;42.794;23.302;2022-10-15T09:50:05;9.38;;;2.38;;
70071;SDS011;57434;42.794;23.302;2022-10-15T09:58:40;6.47;;;2.28;;
70071;SDS011;57434;42.794;23.302;2022-10-15T10:01:20;5.77;;;2.60;;
70071;SDS011;57434;42.794;23.302;2022-10-15T10:03:53;5.88;;;2.30;;
70071;SDS011;57434;42.794;23.302;2022-10-15T10:06:47;7.72;;;2.95;;
70071;SDS011;57434;42.794;23.302;2022-10-15T10:09:21;5.47;;;2.08;;
70071;SDS011;57434;42.794;23.302;2022-10-15T10:12:00;5.18;;;1.77;;
70071;SDS011;57434;42.794;23.302;2022-10-15T11:20:53;3.67;;;1.15;;
70071;SDS011;57434;42.794;23.302;2022-10-15T11:26:47;12.00;;;2.33;;
70071;SDS011;57434;42.794;23.302;2022-10-15T11:43:31;5.00;;;1.47;;
70071;SDS011;57434;42.794;23.302;2022-10-15T11:54:27;3.72;;;1.60;;
70071;SDS011;57434;42.794;23.302;2022-10-15T11:57:02;4.03;;;1.53;;
70071;SDS011;57434;42.794;23.302;2022-10-15T12:02:18;5.75;;;1.73;;
70071;SDS011;57434;42.794;23.302;2022-10-15T12:04:56;4.55;;;1.92;;
70071;SDS011;57434;42.794;23.302;2022-10-15T12:07:33;4.15;;;1.50;;
70071;SDS011;57434;42.794;23.302;2022-10-15T12:10:29;6.37;;;1.50;;
70071;SDS011;57434;42.794;23.302;2022-10-15T12:18:24;9.73;;;3.17;;
70071;SDS011;57434;42.794;23.302;2022-10-15T12:21:00;9.23;;;3.10;;
70071;SDS011;57434;42.794;23.302;2022-10-15T12:26:00;5.97;;;2.30;;
70071;SDS011;57434;42.794;23.302;2022-10-15T12:28:28;7.10;;;1.88;;
70071;SDS011;57434;42.794;23.302;2022-10-15T12:31:01;4.97;;;2.13;;
70071;SDS011;57434;42.794;23.302;2022-10-15T12:33:31;4.97;;;1.95;;
70071;SDS011;57434;42.794;23.302;2022-10-15T12:38:55;6.22;;;2.17;;
70071;SDS011;57434;42.794;23.302;2022-10-15T12:41:46;7.00;;;2.53;;
70071;SDS011;57434;42.794;23.302;2022-10-15T12:44:30;6.53;;;2.42;;
70071;SDS011;57434;42.794;23.302;2022-10-15T12:47:00;4.22;;;1.85;;
70071;SDS011;57434;42.794;23.302;2022-10-15T12:51:53;6.80;;;2.20;;
70071;SDS011;57434;42.794;23.302;2022-10-15T12:54:32;9.10;;;3.75;;
70071;SDS011;57434;42.794;23.302;2022-10-15T12:59:57;6.15;;;2.30;;
70071;SDS011;57434;42.794;23.302;2022-10-15T13:02:35;5.27;;;2.30;;
70071;SDS011;57434;42.794;23.302;2022-10-15T13:05:06;4.30;;;1.80;;
70071;SDS011;57434;42.794;23.302;2022-10-15T13:07:48;5.13;;;1.80;;
70071;SDS011;57434;42.794;23.302;2022-10-15T13:10:18;8.57;;;2.05;;
70071;SDS011;57434;42.794;23.302;2022-10-15T13:12:52;8.18;;;2.03;;
70071;SDS011;57434;42.794;23.302;2022-10-15T13:15:24;4.63;;;1.87;;
70071;SDS011;57434;42.794;23.302;2022-10-15T13:17:54;5.18;;;1.85;;
70071;SDS011;57434;42.794;23.302;2022-10-15T13:22:49;4.88;;;1.83;;
70071;SDS011;57434;42.794;23.302;2022-10-15T13:25:32;4.72;;;2.10;;
70071;SDS011;57434;42.794;23.302;2022-10-15T13:27:59;5.37;;;1.90;;
70071;SDS011;57434;42.794;23.302;2022-10-15T13:30:25;4.80;;;1.70;;
70071;SDS011;57434;42.794;23.302;2022-10-15T13:32:53;4.95;;;1.70;;
70071;SDS011;57434;42.794;23.302;2022-10-15T13:35:27;6.60;;;1.92;;
70071;SDS011;57434;42.794;23.302;2022-10-15T13:37:57;5.18;;;1.85;;
70071;SDS011;57434;42.794;23.302;2022-10-15T13:40:26;5.90;;;1.80;;
70071;SDS011;57434;42.794;23.302;2022-10-15T13:45:32;4.90;;;2.20;;
70071;SDS011;57434;42.794;23.302;2022-10-15T13:47:59;5.68;;;2.00;;
70071;SDS011;57434;42.794;23.302;2022-10-15T13:50:35;4.40;;;1.70;;
70071;SDS011;57434;42.794;23.302;2022-10-15T13:55:53;5.55;;;1.80;;
70071;SDS011;57434;42.794;23.302;2022-10-15T14:03:35;5.88;;;1.98;;
70071;SDS011;57434;42.794;23.302;2022-10-15T14:06:19;5.03;;;1.67;;
70071;SDS011;57434;42.794;23.302;2022-10-15T14:08:57;4.10;;;1.50;;
70071;SDS011;57434;42.794;23.302;2022-10-15T14:11:27;10.18;;;3.63;;
70071;SDS011;57434;42.794;23.302;2022-10-15T14:13:56;7.18;;;2.80;;
70071;SDS011;57434;42.794;23.302;2022-10-15T14:21:41;6.40;;;1.70;;
70071;SDS011;57434;42.794;23.302;2022-10-15T14:26:47;5.28;;;1.58;;
70071;SDS011;57434;42.794;23.302;2022-10-15T14:29:15;4.22;;;1.70;;
70071;SDS011;57434;42.794;23.302;2022-10-15T14:31:45;4.77;;;1.47;;
70071;SDS011;57434;42.794;23.302;2022-10-15T14:34:30;5.07;;;1.63;;
70071;SDS011;57434;42.794;23.302;2022-10-15T14:42:34;6.30;;;1.45;;
70071;SDS011;57434;42.794;23.302;2022-10-15T14:47:44;6.57;;;1.67;;
70071;SDS011;57434;42.794;23.302;2022-10-15T14:50:13;6.40;;;1.60;;
70071;SDS011;57434;42.794;23.302;2022-10-15T14:52:43;5.10;;;2.45;;
70071;SDS011;57434;42.794;23.302;2022-10-15T14:55:55;4.72;;;1.75;;
70071;SDS011;57434;42.794;23.302;2022-10-15T14:58:09;5.03;;;1.67;;
70071;SDS011;57434;42.794;23.302;2022-10-15T15:00:43;7.65;;;1.80;;
70071;SDS011;57434;42.794;23.302;2022-10-15T15:03:25;4.25;;;1.75;;
70071;SDS011;57434;42.794;23.302;2022-10-15T15:05:55;6.38;;;1.75;;
70071;SDS011;57434;42.794;23.302;2022-10-15T15:08:23;4.50;;;1.42;;
70071;SDS011;57434;42.794;23.302;2022-10-15T15:10:51;7.00;;;1.37;;
70071;SDS011;57434;42.794;23.302;2022-10-15T15:13:22;4.40;;;1.50;;
70071;SDS011;57434;42.794;23.302;2022-10-15T15:15:51;5.38;;;1.50;;
70071;SDS011;57434;42.794;23.302;2022-10-15T15:18:18;5.45;;;1.67;;
70071;SDS011;57434;42.794;23.302;2022-10-15T15:20:46;3.42;;;1.15;;
70071;SDS011;57434;42.794;23.302;2022-10-15T15:23:18;6.20;;;1.53;;
70071;SDS011;57434;42.794;23.302;2022-10-15T15:25:48;3.80;;;1.50;;
70071;SDS011;57434;42.794;23.302;2022-10-15T15:28:17;4.25;;;1.27;;
70071;SDS011;57434;42.794;23.302;2022-10-15T15:30:49;4.97;;;1.67;;
70071;SDS011;57434;42.794;23.302;2022-10-15T15:33:21;4.05;;;1.27;;
70071;SDS011;57434;42.794;23.302;2022-10-15T15:35:49;8.43;;;2.00;;
70071;SDS011;57434;42.794;23.302;2022-10-15T15:38:19;5.32;;;1.90;;
70071;SDS011;57434;42.794;23.302;2022-10-15T15:40:50;4.55;;;1.50;;
70071;SDS011;57434;42.794;23.302;2022-10-15T15:43:17;3.78;;;1.30;;
70071;SDS011;57434;42.794;23.302;2022-10-15T15:45:45;5.22;;;1.77;;
70071;SDS011;57434;42.794;23.302;2022-10-15T15:48:12;5.83;;;1.57;;
70071;SDS011;57434;42.794;23.302;2022-10-15T15:50:39;3.88;;;1.52;;
70071;SDS011;57434;42.794;23.302;2022-10-15T15:53:06;5.30;;;1.70;;
70071;SDS011;57434;42.794;23.302;2022-10-15T15:55:34;4.60;;;1.38;;
70071;SDS011;57434;42.794;23.302;2022-10-15T15:58:00;5.20;;;1.90;;
70071;SDS011;57434;42.794;23.302;2022-10-15T16:00:27;6.77;;;2.03;;
70071;SDS011;57434;42.794;23.302;2022-10-15T16:02:54;5.57;;;1.70;;
70071;SDS011;57434;42.794;23.302;2022-10-15T16:05:23;7.22;;;1.90;;
70071;SDS011;57434;42.794;23.302;2022-10-15T16:07:50;6.43;;;1.70;;
70071;SDS011;57434;42.794;23.302;2022-10-15T16:10:17;6.82;;;1.92;;
70071;SDS011;57434;42.794;23.302;2022-10-15T16:12:44;6.07;;;1.93;;
70071;SDS011;57434;42.794;23.302;2022-10-15T16:15:10;7.32;;;3.40;;
70071;SDS011;57434;42.794;23.302;2022-10-15T16:17:40;4.57;;;1.90;;
70071;SDS011;57434;42.794;23.302;2022-10-15T16:20:08;5.63;;;2.00;;
70071;SDS011;57434;42.794;23.302;2022-10-15T16:22:35;6.35;;;2.00;;
70071;SDS011;57434;42.794;23.302;2022-10-15T16:25:02;9.67;;;3.77;;
70071;SDS011;57434;42.794;23.302;2022-10-15T16:27:30;6.38;;;2.10;;
70071;SDS011;57434;42.794;23.302;2022-10-15T16:29:56;10.40;;;3.25;;
70071;SDS011;57434;42.794;23.302;2022-10-15T16:32:23;6.78;;;2.10;;
70071;SDS011;57434;42.794;23.302;2022-10-15T16:34:50;6.68;;;1.90;;
70071;SDS011;57434;42.794;23.302;2022-10-15T16:37:17;5.77;;;1.80;;
70071;SDS011;57434;42.794;23.302;2022-10-15T16:39:44;4.57;;;1.80;;
70071;SDS011;57434;42.794;23.302;2022-10-15T16:42:11;6.35;;;1.92;;
70071;SDS011;57434;42.794;23.302;2022-10-15T16:44:38;6.00;;;1.63;;
70071;SDS011;57434;42.794;23.302;2022-10-15T16:47:05;6.15;;;2.30;;
70071;SDS011;57434;42.794;23.302;2022-10-15T16:49:32;7.50;;;2.87;;
70071;SDS011;57434;42.794;23.302;2022-10-15T16:51:59;8.93;;;4.18;;
70071;SDS011;57434;42.794;23.302;2022-10-15T16:54:25;6.30;;;2.50;;
70071;SDS011;57434;42.794;23.302;2022-10-15T16:56:52;8.60;;;2.30;;
70071;SDS011;57434;42.794;23.302;2022-10-15T16:59:19;9.68;;;2.00;;
70071;SDS011;57434;42.794;23.302;2022-10-15T17:01:46;6.10;;;1.87;;
70071;SDS011;57434;42.794;23.302;2022-10-15T17:04:13;6.57;;;2.75;;
70071;SDS011;57434;42.794;23.302;2022-10-15T17:06:40;7.80;;;3.70;;
70071;SDS011;57434;42.794;23.302;2022-10-15T17:09:07;5.50;;;2.38;;
70071;SDS011;57434;42.794;23.302;2022-10-15T17:11:35;7.68;;;2.70;;
70071;SDS011;57434;42.794;23.302;2022-10-15T17:14:04;8.20;;;2.63;;
70071;SDS011;57434;42.794;23.302;2022-10-15T17:16:37;10.00;;;2.40;;
70071;SDS011;57434;42.794;23.302;2022-10-15T17:19:06;7.45;;;2.78;;
70071;SDS011;57434;42.794;23.302;2022-10-15T17:21:33;10.88;;;3.50;;
70071;SDS011;57434;42.794;23.302;2022-10-15T17:24:01;11.93;;;4.55;;
70071;SDS011;57434;42.794;23.302;2022-10-15T17:26:32;7.67;;;2.90;;
70071;SDS011;57434;42.794;23.302;2022-10-15T17:29:00;7.43;;;2.20;;
70071;SDS011;57434;42.794;23.302;2022-10-15T17:31:28;6.57;;;2.55;;
70071;SDS011;57434;42.794;23.302;2022-10-15T17:33:59;6.38;;;2.65;;
70071;SDS011;57434;42.794;23.302;2022-10-15T17:36:28;5.55;;;2.42;;
70071;SDS011;57434;42.794;23.302;2022-10-15T17:38:58;7.00;;;2.40;;
70071;SDS011;57434;42.794;23.302;2022-10-15T17:41:28;6.85;;;2.60;;
70071;SDS011;57434;42.794;23.302;2022-10-15T17:43:56;8.32;;;2.40;;
70071;SDS011;57434;42.794;23.302;2022-10-15T17:46:24;5.20;;;2.40;;
70071;SDS011;57434;42.794;23.302;2022-10-15T17:48:53;9.30;;;2.30;;
70071;SDS011;57434;42.794;23.302;2022-10-15T17:51:22;10.17;;;4.30;;
70071;SDS011;57434;42.794;23.302;2022-10-15T17:53:53;12.20;;;4.90;;
70071;SDS011;57434;42.794;23.302;2022-10-15T17:56:21;8.15;;;3.63;;
70071;SDS011;57434;42.794;23.302;2022-10-15T17:58:50;5.60;;;2.20;;